Time;durP1;ratioP1;P1;durP2;ratioP2;P2;SDS_P1;SDS_P2;PMS_P1;PMS_P2;Temp;Humidity;BMP_temperature;BMP_pressure;BME280_temperature;BME280_humidity;BME280_pressure;Samples;Min_cycle;Max_cycle;Signal;HPM_P1;HPM_P2
2023/05/14 00:02:22;;;;;;;27.23;15.43;;;11.70;99.90;;;;;;5055996;28;20048;-72
2023/05/14 00:04:48;;;;;;;25.67;15.80;;;11.60;99.90;;;;;;4978095;28;217113;-71
2023/05/14 00:07:14;;;;;;;25.42;15.43;;;11.70;99.90;;;;;;5055225;28;20499;-71
2023/05/14 00:09:40;;;;;;;23.52;15.75;;;11.60;99.90;;;;;;4984941;28;212370;-72
2023/05/14 00:12:06;;;;;;;28.08;15.38;;;11.60;99.90;;;;;;5052354;28;20056;-70
2023/05/14 00:14:33;;;;;;;24.58;15.05;;;11.60;99.90;;;;;;5000561;28;239644;-69
2023/05/14 00:16:59;;;;;;;25.80;14.98;;;11.60;99.90;;;;;;5055130;28;20068;-69
2023/05/14 00:19:26;;;;;;;24.10;15.85;;;11.50;99.90;;;;;;4996997;28;216050;-69
2023/05/14 00:21:52;;;;;;;22.48;15.57;;;11.50;99.90;;;;;;5051039;28;20049;-70
2023/05/14 00:24:18;;;;;;;24.58;14.60;;;11.50;99.90;;;;;;4981886;28;207458;-71
2023/05/14 00:26:44;;;;;;;23.58;15.10;;;11.50;99.90;;;;;;5052536;28;21045;-70
2023/05/14 00:29:10;;;;;;;23.05;15.88;;;11.50;99.90;;;;;;4994603;28;224863;-70
2023/05/14 00:31:36;;;;;;;24.75;15.52;;;11.50;99.90;;;;;;5053711;28;20511;-71
2023/05/14 00:34:03;;;;;;;24.92;14.40;;;11.50;99.90;;;;;;4998539;28;206093;-70
2023/05/14 00:36:31;;;;;;;28.13;14.95;;;11.60;99.90;;;;;;5050205;28;20056;-70
2023/05/14 00:38:57;;;;;;;25.02;14.30;;;11.50;99.90;;;;;;5003539;28;215890;-68
2023/05/14 00:41:24;;;;;;;27.90;15.60;;;11.50;99.90;;;;;;5064525;28;20052;-70
2023/05/14 00:43:50;;;;;;;22.13;14.70;;;11.50;99.90;;;;;;4996287;28;250851;-70
2023/05/14 00:46:16;;;;;;;23.60;14.82;;;11.40;99.90;;;;;;5048215;28;20075;-69
2023/05/14 00:48:43;;;;;;;24.40;15.73;;;11.40;99.90;;;;;;4988941;28;215879;-69
2023/05/14 00:51:10;;;;;;;22.65;14.32;;;11.30;99.90;;;;;;5071813;28;20048;-69
2023/05/14 00:53:36;;;;;;;21.83;14.57;;;11.30;99.90;;;;;;5009726;28;216213;-69
2023/05/14 00:56:03;;;;;;;24.52;14.77;;;11.20;99.90;;;;;;5059776;28;20431;-69
2023/05/14 00:58:29;;;;;;;25.30;14.88;;;11.20;99.90;;;;;;4884569;28;3027365;-70
2023/05/14 01:00:55;;;;;;;23.00;14.27;;;11.20;99.90;;;;;;5048329;28;20047;-70
2023/05/14 01:03:21;;;;;;;23.17;14.98;;;11.10;99.90;;;;;;5025183;28;208360;-71
2023/05/14 01:06:03;;;;;;;22.10;14.73;;;11.10;99.90;;;;;;5084790;28;20059;-72
2023/05/14 01:08:59;;;;;;;26.73;14.85;;;11.10;99.90;;;;;;5008222;28;209568;-70
2023/05/14 01:11:49;;;;;;;24.05;14.43;;;11.10;99.90;;;;;;5081139;28;20040;-71
2023/05/14 01:14:30;;;;;;;24.52;13.90;;;11.00;99.90;;;;;;5008286;28;206792;-71
2023/05/14 01:16:58;;;;;;;21.97;13.93;;;10.90;99.90;;;;;;5069434;28;20059;-71
2023/05/14 01:19:33;;;;;;;25.70;13.30;;;10.90;99.90;;;;;;5007006;28;220085;-69
2023/05/14 01:21:59;;;;;;;23.88;13.27;;;10.80;99.90;;;;;;5069803;28;20052;-69
2023/05/14 01:24:25;;;;;;;21.02;13.77;;;10.80;99.90;;;;;;5026082;28;214135;-70
2023/05/14 01:26:53;;;;;;;19.95;14.00;;;10.80;99.90;;;;;;5074088;28;20383;-70
2023/05/14 01:29:22;;;;;;;20.33;13.90;;;10.80;99.90;;;;;;5016243;28;215769;-68
2023/05/14 01:31:49;;;;;;;23.17;14.02;;;10.80;99.90;;;;;;5070763;28;20055;-70
2023/05/14 01:34:19;;;;;;;25.08;14.15;;;10.70;99.90;;;;;;5012532;28;218885;-70
2023/05/14 01:36:47;;;;;;;25.75;13.75;;;10.60;99.90;;;;;;5071720;28;20419;-70
2023/05/14 01:39:14;;;;;;;20.33;13.02;;;10.60;99.90;;;;;;5015947;28;211206;-72
2023/05/14 01:41:41;;;;;;;23.10;12.57;;;10.60;99.90;;;;;;5075904;28;20507;-72
2023/05/14 01:44:11;;;;;;;23.13;13.23;;;10.50;99.90;;;;;;5017258;28;212499;-70
2023/05/14 01:46:37;;;;;;;27.52;13.57;;;10.50;99.90;;;;;;5069426;28;20052;-71
2023/05/14 01:49:03;;;;;;;22.45;12.50;;;10.50;99.90;;;;;;5005619;28;212348;-70
2023/05/14 01:51:29;;;;;;;22.77;13.45;;;10.50;99.90;;;;;;5051905;28;20048;-70
2023/05/14 01:53:55;;;;;;;18.08;12.50;;;10.50;99.90;;;;;;4994336;28;217824;-70
2023/05/14 01:56:24;;;;;;;26.05;13.30;;;10.50;99.90;;;;;;5037137;28;20439;-69
2023/05/14 01:58:50;;;;;;;22.45;13.15;;;10.50;99.90;;;;;;4973875;28;252784;-69
2023/05/14 02:01:16;;;;;;;22.10;13.27;;;10.50;99.90;;;;;;5046067;28;20053;-71
2023/05/14 02:03:42;;;;;;;24.27;12.80;;;10.50;99.90;;;;;;4990021;28;207928;-69
2023/05/14 02:06:08;;;;;;;21.27;12.98;;;10.40;99.90;;;;;;5046827;28;20071;-71
2023/05/14 02:08:34;;;;;;;19.98;11.70;;;10.40;99.90;;;;;;4998956;28;212758;-69
2023/05/14 02:11:00;;;;;;;19.83;12.95;;;10.40;99.90;;;;;;5042297;28;20056;-69
2023/05/14 02:13:27;;;;;;;21.88;14.02;;;10.40;99.90;;;;;;5006395;28;205949;-69
2023/05/14 02:15:53;;;;;;;23.02;14.25;;;10.50;99.90;;;;;;5061975;28;20044;-70
2023/05/14 02:18:19;;;;;;;21.92;13.43;;;10.50;99.90;;;;;;4994455;28;225143;-69
2023/05/14 02:20:45;;;;;;;25.50;14.25;;;10.50;99.90;;;;;;5059603;28;20044;-69
2023/05/14 02:23:11;;;;;;;20.63;13.52;;;10.50;99.90;;;;;;4979349;28;208821;-71
2023/05/14 02:25:37;;;;;;;22.20;13.15;;;10.50;99.90;;;;;;5043890;28;20052;-73
2023/05/14 02:28:03;;;;;;;24.33;13.87;;;10.50;99.90;;;;;;5025965;28;207585;-71
2023/05/14 02:30:30;;;;;;;23.73;12.88;;;10.50;99.90;;;;;;5024608;28;20426;-70
2023/05/14 02:32:56;;;;;;;22.70;13.13;;;10.50;99.90;;;;;;5050065;28;212379;-69
2023/05/14 02:35:22;;;;;;;24.35;14.00;;;10.40;99.90;;;;;;5028502;28;87961;-69
2023/05/14 02:37:48;;;;;;;22.88;13.40;;;10.40;99.90;;;;;;5073703;28;20066;-70
2023/05/14 02:40:15;;;;;;;22.45;14.25;;;10.40;99.90;;;;;;5004938;28;211326;-70
2023/05/14 02:42:41;;;;;;;25.45;14.98;;;10.30;99.90;;;;;;5058935;28;20040;-70
2023/05/14 02:45:07;;;;;;;22.98;14.30;;;10.30;99.90;;;;;;5015046;28;206554;-69
2023/05/14 02:47:33;;;;;;;21.58;14.23;;;10.20;99.90;;;;;;5065392;28;20049;-68
2023/05/14 02:49:59;;;;;;;21.77;13.95;;;10.20;99.90;;;;;;4982816;28;209594;-68
2023/05/14 02:52:25;;;;;;;21.48;14.30;;;10.20;99.90;;;;;;5057441;28;20144;-69
2023/05/14 02:54:52;;;;;;;26.02;13.65;;;10.20;99.90;;;;;;4979711;28;210280;-70
2023/05/14 02:57:18;;;;;;;26.23;14.32;;;10.20;99.90;;;;;;5049375;28;20499;-70
2023/05/14 02:59:44;;;;;;;30.05;14.25;;;10.20;99.90;;;;;;4965599;28;250208;-69
2023/05/14 03:02:10;;;;;;;22.42;13.63;;;10.20;99.90;;;;;;5054272;28;20075;-69
2023/05/14 03:04:36;;;;;;;23.77;13.80;;;10.10;99.90;;;;;;4984522;28;206548;-70
2023/05/14 03:07:02;;;;;;;20.70;13.07;;;10.10;99.90;;;;;;5055280;28;20049;-70
2023/05/14 03:09:28;;;;;;;20.17;12.18;;;10.10;99.90;;;;;;5014722;28;208914;-69
2023/05/14 03:11:55;;;;;;;25.83;14.27;;;10.10;99.90;;;;;;5080522;28;20063;-70
2023/05/14 03:14:21;;;;;;;21.88;13.35;;;10.10;99.90;;;;;;5008354;28;214959;-69
2023/05/14 03:16:47;;;;;;;22.88;13.30;;;10.10;99.90;;;;;;5074638;28;20225;-70
2023/05/14 03:19:13;;;;;;;21.85;12.68;;;10.10;99.90;;;;;;5009747;28;212188;-70
2023/05/14 03:21:39;;;;;;;17.25;11.27;;;10.10;99.90;;;;;;5062471;28;20051;-69
2023/05/14 03:24:05;;;;;;;18.25;11.63;;;10.20;99.90;;;;;;5015841;28;229949;-69
2023/05/14 03:26:32;;;;;;;21.60;12.20;;;10.20;99.90;;;;;;5071526;28;20047;-69
2023/05/14 03:28:58;;;;;;;22.40;12.18;;;10.20;99.90;;;;;;5025100;28;207526;-70
2023/05/14 03:31:25;;;;;;;22.27;12.15;;;10.20;99.90;;;;;;5063922;28;20763;-69
2023/05/14 03:33:51;;;;;;;21.15;12.55;;;10.20;99.90;;;;;;5014573;28;212588;-71
2023/05/14 03:36:17;;;;;;;27.75;13.18;;;10.20;99.90;;;;;;5062195;28;20127;-69
2023/05/14 03:38:43;;;;;;;21.60;12.20;;;10.20;99.90;;;;;;4999804;28;212810;-70
2023/05/14 03:41:09;;;;;;;21.67;12.60;;;10.20;99.90;;;;;;5060747;28;20060;-69
2023/05/14 03:43:35;;;;;;;16.77;10.40;;;10.20;99.90;;;;;;5002736;28;212630;-69
2023/05/14 03:46:02;;;;;;;19.02;11.10;;;10.20;99.90;;;;;;5055081;28;20056;-70
2023/05/14 03:48:28;;;;;;;22.10;11.25;;;10.20;99.90;;;;;;5005667;28;212567;-71
2023/05/14 03:50:54;;;;;;;19.85;11.73;;;10.20;99.90;;;;;;5046115;28;20049;-70
2023/05/14 03:53:20;;;;;;;18.15;11.15;;;10.10;99.90;;;;;;4999148;28;212581;-70
2023/05/14 03:55:46;;;;;;;22.92;13.18;;;10.20;99.90;;;;;;5046724;28;20053;-71
2023/05/14 03:58:13;;;;;;;26.40;13.00;;;10.20;99.90;;;;;;4988956;27;213893;-68
2023/05/14 04:00:40;;;;;;;24.60;13.02;;;10.10;99.90;;;;;;5080647;28;20510;-70
2023/05/14 04:03:07;;;;;;;23.83;12.80;;;10.20;99.90;;;;;;5022198;28;246327;-71
2023/05/14 04:05:34;;;;;;;23.55;13.27;;;10.20;99.90;;;;;;5076571;28;20051;-69
2023/05/14 04:08:01;;;;;;;21.13;12.70;;;10.20;99.90;;;;;;5033818;28;210869;-67
2023/05/14 04:10:27;;;;;;;25.08;12.70;;;10.20;99.90;;;;;;5028580;28;20064;-71
2023/05/14 04:12:54;;;;;;;19.50;10.52;;;10.30;99.90;;;;;;5057092;28;20056;-71
2023/05/14 04:15:20;;;;;;;23.13;11.60;;;10.30;99.90;;;;;;5007321;28;210987;-73
2023/05/14 04:17:47;;;;;;;20.73;11.80;;;10.30;99.90;;;;;;5076855;28;20053;-73
2023/05/14 04:20:13;;;;;;;20.13;12.18;;;10.30;99.90;;;;;;5023343;28;213760;-71
2023/05/14 04:22:39;;;;;;;21.05;11.48;;;10.30;99.90;;;;;;5073828;28;20047;-70
2023/05/14 04:25:05;;;;;;;19.23;11.93;;;10.30;99.90;;;;;;5001945;28;217204;-70
2023/05/14 04:27:33;;;;;;;22.30;13.00;;;10.30;99.90;;;;;;5061177;28;20415;-72
2023/05/14 04:29:59;;;;;;;22.75;13.05;;;10.40;99.90;;;;;;4995271;28;210775;-70
2023/05/14 04:32:25;;;;;;;29.73;14.13;;;10.40;99.90;;;;;;5073689;28;20056;-71
2023/05/14 04:34:51;;;;;;;26.65;14.85;;;10.50;99.90;;;;;;5009586;28;212223;-73
2023/05/14 04:37:17;;;;;;;27.17;16.20;;;10.50;99.90;;;;;;5059174;28;20064;-71
2023/05/14 04:39:43;;;;;;;29.95;16.67;;;10.60;99.90;;;;;;5010713;28;212191;-70
2023/05/14 04:42:09;;;;;;;24.38;16.58;;;10.60;99.90;;;;;;5062935;28;20525;-73
2023/05/14 04:44:36;;;;;;;25.63;17.40;;;10.70;99.90;;;;;;5006659;28;225618;-70
2023/05/14 04:47:03;;;;;;;33.53;17.20;;;10.70;99.90;;;;;;5073209;28;20510;-71
2023/05/14 04:49:30;;;;;;;28.13;17.48;;;10.70;99.90;;;;;;5008997;28;211135;-71
2023/05/14 04:51:56;;;;;;;28.75;16.88;;;10.70;99.90;;;;;;5078195;28;20059;-70
2023/05/14 04:54:22;;;;;;;28.17;16.30;;;10.70;99.90;;;;;;5006168;28;210481;-71
2023/05/14 04:56:48;;;;;;;32.30;18.90;;;10.80;99.90;;;;;;5069593;28;20056;-71
2023/05/14 04:59:15;;;;;;;37.17;18.55;;;10.80;99.90;;;;;;5002790;28;224348;-71
2023/05/14 05:01:41;;;;;;;35.38;19.10;;;10.80;99.90;;;;;;5066541;28;20048;-71
2023/05/14 05:04:07;;;;;;;35.85;19.45;;;10.80;99.90;;;;;;5015435;28;213301;-70
2023/05/14 05:06:33;;;;;;;35.28;18.88;;;10.90;99.90;;;;;;5057828;28;20040;-71
2023/05/14 05:08:59;;;;;;;38.10;19.33;;;10.90;99.90;;;;;;5022555;28;226387;-73
2023/05/14 05:11:25;;;;;;;41.70;19.33;;;10.90;99.90;;;;;;5078195;28;20502;-70
2023/05/14 05:13:52;;;;;;;37.85;18.50;;;11.00;99.90;;;;;;5014083;28;235669;-71
2023/05/14 05:16:18;;;;;;;42.20;18.45;;;11.00;99.90;;;;;;5068427;28;20060;-70
2023/05/14 05:18:44;;;;;;;34.20;18.63;;;11.00;99.90;;;;;;5009053;28;212725;-71
2023/05/14 05:21:10;;;;;;;34.42;17.73;;;11.10;99.90;;;;;;5074932;28;20525;-70
2023/05/14 05:23:36;;;;;;;32.50;18.13;;;11.10;99.90;;;;;;5006373;28;220787;-68
2023/05/14 05:26:03;;;;;;;30.70;16.25;;;11.20;99.90;;;;;;5063848;28;20048;-69
2023/05/14 05:28:29;;;;;;;36.80;16.77;;;11.30;99.90;;;;;;5018090;28;205797;-69
2023/05/14 05:30:55;;;;;;;28.33;15.35;;;11.50;99.90;;;;;;5055467;28;20423;-70
2023/05/14 05:33:21;;;;;;;33.83;15.98;;;11.70;99.90;;;;;;5022078;28;207441;-70
2023/05/14 05:35:48;;;;;;;32.35;16.23;;;11.80;99.90;;;;;;5081137;28;20621;-70
2023/05/14 05:38:17;;;;;;;28.43;15.17;;;11.90;99.90;;;;;;5018117;28;212274;-70
2023/05/14 05:40:43;;;;;;;29.15;13.50;;;12.10;99.90;;;;;;5078337;28;20450;-71
2023/05/14 05:43:09;;;;;;;30.08;13.00;;;12.20;99.90;;;;;;5012317;28;213038;-71
2023/05/14 05:45:38;;;;;;;25.65;13.23;;;12.40;99.90;;;;;;5088246;28;20074;-69
2023/05/14 05:48:04;;;;;;;30.63;12.23;;;12.40;99.90;;;;;;5026906;28;212292;-69
2023/05/14 05:50:31;;;;;;;30.42;12.82;;;12.60;99.90;;;;;;5087821;28;20569;-71
2023/05/14 05:53:00;;;;;;;27.20;12.15;;;12.70;99.90;;;;;;5053901;28;210915;-70
2023/05/14 05:55:27;;;;;;;25.80;10.43;;;12.90;99.90;;;;;;5043011;28;255242;-70
2023/05/14 05:57:56;;;;;;;23.05;10.20;;;13.10;99.90;;;;;;5073853;28;20055;-70
2023/05/14 06:00:23;;;;;;;25.50;10.15;;;13.40;99.90;;;;;;4993044;28;20155;-72
2023/05/14 06:02:49;;;;;;;26.58;9.35;;;13.60;99.90;;;;;;5055031;28;20071;-71
2023/05/14 06:05:15;;;;;;;26.60;9.70;;;13.90;99.90;;;;;;5002236;28;212591;-68
2023/05/14 06:07:41;;;;;;;22.58;9.00;;;14.10;99.90;;;;;;5051437;28;20045;-70
2023/05/14 06:10:07;;;;;;;25.88;9.15;;;14.30;99.90;;;;;;5003362;28;215972;-71
2023/05/14 06:12:33;;;;;;;25.58;8.90;;;14.50;99.90;;;;;;5057688;28;20053;-69
2023/05/14 06:15:00;;;;;;;21.27;8.05;;;14.70;99.90;;;;;;4993545;28;157519;-71
2023/05/14 06:17:26;;;;;;;21.35;7.78;;;14.90;99.90;;;;;;5083517;28;20049;-71
2023/05/14 06:19:52;;;;;;;22.83;7.78;;;15.20;99.90;;;;;;5013942;28;215077;-70
2023/05/14 06:22:19;;;;;;;18.38;7.25;;;15.40;99.90;;;;;;5075876;28;20052;-72
2023/05/14 06:24:46;;;;;;;24.58;7.65;;;15.50;99.90;;;;;;5031349;28;274506;-70
2023/05/14 06:27:13;;;;;;;23.13;6.57;;;15.80;99.90;;;;;;5072978;28;20877;-70
2023/05/14 06:29:39;;;;;;;20.80;6.63;;;16.10;99.90;;;;;;5006150;28;217236;-71
2023/05/14 06:32:05;;;;;;;20.92;6.47;;;16.30;99.90;;;;;;5072889;28;20048;-70
2023/05/14 06:34:32;;;;;;;21.33;6.47;;;16.60;99.90;;;;;;5000106;28;212829;-73
2023/05/14 06:36:58;;;;;;;17.52;6.55;;;16.70;99.90;;;;;;5076207;28;20426;-72
2023/05/14 06:39:24;;;;;;;18.55;6.63;;;16.70;99.90;;;;;;5015294;28;209344;-70
2023/05/14 06:41:51;;;;;;;22.75;6.28;;;16.50;99.90;;;;;;5079464;28;20071;-69
2023/05/14 06:44:18;;;;;;;18.95;6.25;;;16.40;99.90;;;;;;5032247;28;215139;-71
2023/05/14 06:46:44;;;;;;;19.27;6.55;;;16.50;99.90;;;;;;5084823;28;20059;-72
2023/05/14 06:49:11;;;;;;;18.10;6.40;;;16.20;99.90;;;;;;4998590;28;209160;-69
2023/05/14 06:51:37;;;;;;;20.27;6.20;;;16.30;99.90;;;;;;5066861;28;20056;-70
2023/05/14 06:54:04;;;;;;;19.55;6.15;;;16.20;99.90;;;;;;5023009;28;222450;-70
2023/05/14 06:56:30;;;;;;;20.67;7.45;;;16.20;99.90;;;;;;5070049;28;20569;-70
2023/05/14 06:58:56;;;;;;;16.98;6.40;;;16.20;99.90;;;;;;5002981;28;212473;-70
2023/05/14 07:01:22;;;;;;;23.10;7.47;;;16.40;99.90;;;;;;5065284;28;20426;-71
2023/05/14 07:03:48;;;;;;;22.13;7.00;;;16.40;99.90;;;;;;5011589;28;211931;-69
2023/05/14 07:06:15;;;;;;;20.05;7.45;;;16.50;99.90;;;;;;5080013;28;20602;-69
2023/05/14 07:08:44;;;;;;;24.05;7.80;;;16.60;99.90;;;;;;5027501;28;214671;-68
2023/05/14 07:11:12;;;;;;;21.90;7.18;;;16.50;99.90;;;;;;5069775;28;20063;-69
2023/05/14 07:13:39;;;;;;;19.25;7.28;;;16.60;99.90;;;;;;5018943;28;206942;-69
2023/05/14 07:16:08;;;;;;;19.80;6.95;;;16.60;99.90;;;;;;5051333;28;20324;-68
2023/05/14 07:18:34;;;;;;;20.05;6.70;;;16.60;99.90;;;;;;4999015;28;237193;-68
2023/05/14 07:21:00;;;;;;;18.70;6.40;;;16.60;99.90;;;;;;5047299;28;20053;-67
2023/05/14 07:23:26;;;;;;;18.60;6.25;;;16.80;99.90;;;;;;4999315;28;209726;-68
2023/05/14 07:25:52;;;;;;;22.83;6.18;;;16.80;99.90;;;;;;5076704;28;20047;-68
2023/05/14 07:28:18;;;;;;;18.80;6.50;;;16.90;99.90;;;;;;5024056;28;212885;-68
2023/05/14 07:30:45;;;;;;;16.95;5.63;;;17.00;99.90;;;;;;5078884;28;20056;-68
2023/05/14 07:33:11;;;;;;;20.02;6.88;;;17.10;99.90;;;;;;5016019;28;212256;-68
2023/05/14 07:35:37;;;;;;;17.00;5.72;;;17.30;99.90;;;;;;5068727;28;20060;-69
2023/05/14 07:38:04;;;;;;;20.60;6.13;;;17.50;99.90;;;;;;5006652;28;219014;-68
2023/05/14 07:40:30;;;;;;;18.35;5.95;;;17.70;99.90;;;;;;5078895;28;20059;-68
2023/05/14 07:42:56;;;;;;;13.70;5.40;;;17.80;99.90;;;;;;5055497;28;221715;-68
2023/05/14 07:45:23;;;;;;;23.13;5.72;;;18.00;99.90;;;;;;5031811;28;206822;-68
2023/05/14 07:47:50;;;;;;;15.00;5.80;;;18.30;99.90;;;;;;5087389;28;20056;-69
2023/05/14 07:50:17;;;;;;;15.02;5.45;;;18.70;99.90;;;;;;5002693;28;213637;-69
2023/05/14 07:52:44;;;;;;;16.92;5.80;;;18.90;99.90;;;;;;5076596;28;20048;-68
2023/05/14 07:55:11;;;;;;;17.17;5.85;;;19.00;99.90;;;;;;5020390;28;222692;-69
2023/05/14 07:57:38;;;;;;;18.73;5.50;;;19.10;99.90;;;;;;5074031;28;20053;-68
2023/05/14 08:00:08;;;;;;;14.93;5.28;;;19.40;99.90;;;;;;5007338;28;217088;-69
2023/05/14 08:02:34;;;;;;;19.98;5.53;;;19.70;99.90;;;;;;5084319;28;20063;-69
2023/05/14 08:05:00;;;;;;;16.20;4.90;;;20.10;99.90;;;;;;5015921;28;246020;-69
2023/05/14 08:07:28;;;;;;;17.02;5.03;;;20.50;99.90;;;;;;5081766;28;20059;-69
2023/05/14 08:09:55;;;;;;;22.67;5.60;;;20.60;99.90;;;;;;5018769;28;241722;-69
2023/05/14 08:12:21;;;;;;;15.45;4.93;;;20.90;99.90;;;;;;5072414;28;20056;-67
2023/05/14 08:14:47;;;;;;;18.00;5.05;;;21.00;99.90;;;;;;5018551;28;224241;-69
2023/05/14 08:17:13;;;;;;;18.25;4.93;;;21.10;99.90;;;;;;5076001;28;20062;-69
2023/05/14 08:19:40;;;;;;;12.25;4.90;;;21.00;99.90;;;;;;5012579;28;213129;-69
2023/05/14 08:22:06;;;;;;;16.23;5.20;;;20.90;99.90;;;;;;5061439;28;20052;-68
2023/05/14 08:24:32;;;;;;;16.98;5.03;;;20.70;99.90;;;;;;5001569;28;236738;-68
2023/05/14 08:26:58;;;;;;;16.00;4.85;;;20.60;99.90;;;;;;5060418;28;20052;-69
2023/05/14 08:29:24;;;;;;;14.45;5.10;;;20.30;99.90;;;;;;4993558;28;208002;-68
2023/05/14 08:31:50;;;;;;;17.90;5.20;;;20.00;99.90;;;;;;5059405;28;20047;-69
2023/05/14 08:34:17;;;;;;;16.02;5.25;;;20.50;99.90;;;;;;5003075;28;212876;-68
2023/05/14 08:36:43;;;;;;;16.60;5.03;;;20.80;99.90;;;;;;5059297;28;20051;-68
2023/05/14 08:39:09;;;;;;;14.18;4.25;;;21.30;99.90;;;;;;4983796;28;214231;-67
2023/05/14 08:41:36;;;;;;;13.23;5.10;;;21.70;99.90;;;;;;5046802;28;20052;-67
2023/05/14 08:44:13;;;;;;;15.57;4.68;;;21.70;99.90;;;;;;5002068;28;209198;-69
2023/05/14 08:46:40;;;;;;;15.32;5.10;;;21.60;99.90;;;;;;5050950;28;20040;-67
2023/05/14 08:49:48;;;;;;;14.82;4.70;;;21.70;99.80;;;;;;4999567;28;207824;-68
2023/05/14 08:52:16;;;;;;;12.68;4.82;;;21.80;99.60;;;;;;5055520;28;20052;-67
2023/05/14 08:54:44;;;;;;;15.13;4.85;;;21.80;99.90;;;;;;4979517;28;210487;-68
2023/05/14 08:57:10;;;;;;;16.10;4.63;;;22.20;99.40;;;;;;5057578;28;20069;-68
2023/05/14 08:59:36;;;;;;;13.75;4.35;;;22.50;98.80;;;;;;4962409;28;213784;-69
2023/05/14 09:02:05;;;;;;;16.48;4.78;;;22.80;99.70;;;;;;5050364;28;20064;-69
2023/05/14 09:04:31;;;;;;;14.52;4.60;;;23.20;99.10;;;;;;4982684;28;209421;-67
2023/05/14 09:07:00;;;;;;;18.73;4.70;;;23.30;98.90;;;;;;5053034;28;20041;-69
2023/05/14 09:09:27;;;;;;;17.38;4.45;;;23.30;98.50;;;;;;4998974;28;209332;-68
2023/05/14 09:11:53;;;;;;;14.35;4.13;;;23.00;98.50;;;;;;5058465;28;20049;-68
2023/05/14 09:14:20;;;;;;;15.02;4.43;;;23.00;98.60;;;;;;5016916;28;217684;-68
2023/05/14 09:16:48;;;;;;;15.88;4.55;;;23.00;97.90;;;;;;5079205;28;20055;-68
2023/05/14 09:19:17;;;;;;;17.70;5.03;;;22.80;97.50;;;;;;5001985;28;213043;-67
2023/05/14 09:21:45;;;;;;;13.75;4.82;;;22.90;98.00;;;;;;5062925;28;20071;-68
2023/05/14 09:24:22;;;;;;;14.70;4.63;;;23.10;97.80;;;;;;4994456;28;210327;-68
2023/05/14 09:26:51;;;;;;;15.32;4.70;;;23.40;97.00;;;;;;5046257;28;20048;-67
2023/05/14 09:29:17;;;;;;;11.18;3.92;;;23.80;97.50;;;;;;4984496;28;209591;-68
2023/05/14 09:31:44;;;;;;;13.90;4.80;;;24.20;97.30;;;;;;5042100;28;20076;-69
2023/05/14 09:34:10;;;;;;;13.00;4.53;;;24.40;96.10;;;;;;4995755;28;210255;-69
2023/05/14 09:36:37;;;;;;;14.30;4.50;;;24.60;95.90;;;;;;5047147;28;20056;-68
2023/05/14 09:39:03;;;;;;;16.27;4.88;;;24.00;95.80;;;;;;4990795;28;219612;-68
2023/05/14 09:41:29;;;;;;;11.50;4.00;;;23.70;95.70;;;;;;5044647;28;20064;-68
2023/05/14 09:43:56;;;;;;;11.13;4.18;;;24.10;96.10;;;;;;4976951;28;229063;-68
2023/05/14 09:46:23;;;;;;;14.48;4.95;;;24.30;95.40;;;;;;5058162;28;20044;-68
2023/05/14 09:48:49;;;;;;;13.85;4.47;;;24.70;94.90;;;;;;5009668;28;217518;-68
2023/05/14 09:51:19;;;;;;;20.35;4.38;;;24.90;95.00;;;;;;5062990;28;20536;-68
2023/05/14 09:53:46;;;;;;;12.55;4.40;;;25.00;94.20;;;;;;5010058;28;213029;-68
2023/05/14 09:56:13;;;;;;;14.85;4.95;;;25.40;94.10;;;;;;5068227;28;20789;-68
2023/05/14 09:58:39;;;;;;;12.25;4.32;;;25.80;94.10;;;;;;4999512;28;210536;-68
2023/05/14 10:01:05;;;;;;;14.52;5.00;;;25.90;93.70;;;;;;5067972;28;20056;-67
2023/05/14 10:03:31;;;;;;;14.20;4.47;;;25.50;93.10;;;;;;5002876;28;213167;-68
2023/05/14 10:06:04;;;;;;;13.60;4.32;;;25.40;93.70;;;;;;5063530;28;20439;-67
2023/05/14 10:08:34;;;;;;;15.27;4.95;;;26.00;93.20;;;;;;5005088;28;212378;-68
2023/05/14 10:11:04;;;;;;;12.73;4.35;;;26.50;93.20;;;;;;5077704;28;20588;-68
2023/05/14 10:13:38;;;;;;;15.10;4.40;;;26.90;93.70;;;;;;5015687;28;209131;-68
2023/05/14 10:16:30;;;;;;;12.55;4.75;;;27.50;93.40;;;;;;5073090;28;20593;-68
2023/05/14 10:19:07;;;;;;;11.85;4.07;;;27.50;92.00;;;;;;5015241;28;212432;-69
2023/05/14 10:21:35;;;;;;;12.50;3.95;;;27.30;92.70;;;;;;5075247;28;20437;-68
2023/05/14 10:24:06;;;;;;;13.45;4.25;;;27.20;92.30;;;;;;5023214;28;210645;-67
2023/05/14 10:26:37;;;;;;;11.20;4.15;;;27.30;90.90;;;;;;5076505;28;20475;-68
2023/05/14 10:29:05;;;;;;;10.60;4.05;;;27.30;90.40;;;;;;5031333;28;210527;-67
2023/05/14 10:31:54;;;;;;;15.25;4.22;;;26.80;89.00;;;;;;5084869;28;20803;-69
2023/05/14 10:34:39;;;;;;;13.18;4.38;;;26.50;89.90;;;;;;4995489;28;207097;-67
2023/05/14 10:37:13;;;;;;;14.55;4.13;;;26.20;90.00;;;;;;5079807;28;20415;-67
2023/05/14 10:39:40;;;;;;;12.32;4.22;;;25.70;90.50;;;;;;5014571;28;210739;-67
2023/05/14 10:42:07;;;;;;;11.63;4.40;;;26.10;91.20;;;;;;5063264;28;20063;-70
2023/05/14 10:44:34;;;;;;;12.75;4.22;;;25.80;90.80;;;;;;4988232;28;207111;-68
2023/05/14 10:47:02;;;;;;;15.63;4.20;;;25.30;91.20;;;;;;5041458;28;20057;-67
2023/05/14 10:49:28;;;;;;;11.70;4.25;;;24.90;90.70;;;;;;4984978;28;212901;-68
2023/05/14 10:51:55;;;;;;;10.55;3.75;;;24.70;91.50;;;;;;5051834;28;20420;-67
2023/05/14 10:54:22;;;;;;;12.98;4.10;;;25.20;91.70;;;;;;5007115;28;211956;-69
2023/05/14 10:56:48;;;;;;;12.93;4.30;;;24.70;91.00;;;;;;5046924;28;20083;-69
2023/05/14 10:59:17;;;;;;;11.20;4.38;;;25.10;91.30;;;;;;4985544;28;212371;-69
2023/05/14 11:01:44;;;;;;;15.32;4.30;;;25.80;91.30;;;;;;5070504;28;20058;-69
2023/05/14 11:04:18;;;;;;;13.07;4.10;;;26.20;91.00;;;;;;5013451;28;225767;-68
2023/05/14 11:06:46;;;;;;;12.93;4.70;;;26.30;90.00;;;;;;5065612;28;20059;-69
2023/05/14 11:09:16;;;;;;;11.95;4.05;;;26.30;90.60;;;;;;5003236;28;214114;-69
2023/05/14 11:11:42;;;;;;;12.93;4.18;;;26.60;91.10;;;;;;5068211;28;20066;-69
2023/05/14 11:14:09;;;;;;;13.43;4.65;;;27.00;90.70;;;;;;5021126;28;212347;-69
2023/05/14 11:16:36;;;;;;;10.90;4.25;;;27.20;90.80;;;;;;5073749;28;20060;-68
2023/05/14 11:19:03;;;;;;;12.10;4.57;;;26.90;91.00;;;;;;5022116;28;214078;-69
2023/05/14 11:21:32;;;;;;;14.40;4.80;;;27.20;90.80;;;;;;5070231;28;20055;-68
2023/05/14 11:23:59;;;;;;;14.57;4.72;;;27.50;91.10;;;;;;5016668;28;215107;-69
2023/05/14 11:26:25;;;;;;;14.18;5.07;;;27.30;90.30;;;;;;5073765;28;20778;-69
2023/05/14 11:28:51;;;;;;;15.30;4.25;;;27.20;90.40;;;;;;5018013;28;209027;-70
2023/05/14 11:31:18;;;;;;;11.18;4.35;;;27.50;89.50;;;;;;5070794;28;20055;-67
2023/05/14 11:33:44;;;;;;;11.63;4.00;;;27.80;87.40;;;;;;5010220;28;217031;-69
2023/05/14 11:36:11;;;;;;;10.73;4.32;;;28.00;89.30;;;;;;5077379;28;20056;-68
2023/05/14 11:38:47;;;;;;;12.55;3.80;;;28.30;87.20;;;;;;5014835;28;216501;-67
2023/05/14 11:41:14;;;;;;;11.95;4.30;;;28.30;86.20;;;;;;5059943;28;20506;-67
2023/05/14 11:43:40;;;;;;;11.60;3.80;;;28.20;86.70;;;;;;5008335;28;210100;-68
2023/05/14 11:46:06;;;;;;;11.38;3.83;;;28.10;84.30;;;;;;5066637;28;20052;-68
2023/05/14 11:48:32;;;;;;;10.63;4.15;;;28.20;85.00;;;;;;5016316;28;219500;-68
2023/05/14 11:50:58;;;;;;;12.95;3.92;;;27.90;85.00;;;;;;5066926;28;20052;-68
2023/05/14 11:53:28;;;;;;;9.63;4.00;;;27.60;85.00;;;;;;5013711;28;210433;-68
2023/05/14 11:55:56;;;;;;;9.10;3.15;;;27.80;85.60;;;;;;5059429;28;20052;-69
2023/05/14 11:58:23;;;;;;;11.07;3.42;;;27.70;83.70;;;;;;4988351;28;217475;-68
2023/05/14 12:00:54;;;;;;;10.98;3.30;;;27.60;82.30;;;;;;5052268;28;20688;-67
2023/05/14 12:03:24;;;;;;;16.13;3.85;;;27.50;81.70;;;;;;5001203;28;238703;-68
2023/05/14 12:06:01;;;;;;;8.75;3.58;;;28.00;82.10;;;;;;5074388;28;20049;-68
2023/05/14 12:08:28;;;;;;;11.63;3.63;;;28.40;80.90;;;;;;5024118;28;232636;-68
2023/05/14 12:10:56;;;;;;;13.85;3.55;;;28.70;81.80;;;;;;5058170;28;20051;-68
2023/05/14 12:13:27;;;;;;;11.15;3.30;;;28.70;81.00;;;;;;5014009;28;210541;-67
2023/05/14 12:15:54;;;;;;;;;;;28.80;78.90;;;;;;5060649;28;20052;-67
2023/05/14 12:18:20;;;;;;;10.93;3.20;;;28.30;77.00;;;;;;5013113;27;208511;-68
2023/05/14 12:20:48;;;;;;;12.90;3.05;;;28.20;77.90;;;;;;5058954;28;20535;-70
2023/05/14 12:23:14;;;;;;;9.20;2.93;;;28.20;76.10;;;;;;5009958;28;214681;-70
2023/05/14 12:25:49;;;;;;;15.40;3.50;;;28.70;77.60;;;;;;5056269;28;20063;-70
2023/05/14 12:28:17;;;;;;;11.55;3.10;;;28.20;75.70;;;;;;5014250;28;207856;-71
2023/05/14 12:30:44;;;;;;;10.07;3.10;;;28.20;78.20;;;;;;5076881;28;20063;-69